Time;durP1;ratioP1;P1;durP2;ratioP2;P2;SDS_P1;SDS_P2;PMS_P1;PMS_P2;Temp;Humidity;BMP_temperature;BMP_pressure;BME280_temperature;BME280_humidity;BME280_pressure;Samples;Min_cycle;Max_cycle;Signal;HPM_P1;HPM_P2
2021/12/30 00:00:52;;;;;;;40.03;15.88;;;;;;;2.21;85.44;98167.33;1670519;85;25566;-64
2021/12/30 00:03:19;;;;;;;40.60;16.48;;;;;;;2.25;85.32;98168.40;1670337;85;28220;-62
2021/12/30 00:05:46;;;;;;;43.78;17.00;;;;;;;2.29;85.25;98172.73;1673827;85;25450;-62
2021/12/30 00:08:14;;;;;;;31.27;14.20;;;;;;;2.31;85.16;98167.05;1673947;85;25756;-62
2021/12/30 00:10:42;;;;;;;9.53;5.33;;;;;;;2.29;85.17;98168.68;1673826;85;25443;-62
2021/12/30 00:13:10;;;;;;;31.23;14.03;;;;;;;2.23;85.35;98165.17;1674226;85;25689;-63
2021/12/30 00:15:36;;;;;;;30.50;14.35;;;;;;;2.22;85.35;98163.53;1673899;85;29525;-62
2021/12/30 00:18:05;;;;;;;34.18;15.08;;;;;;;2.22;85.44;98160.04;1674175;85;25437;-61
2021/12/30 00:20:33;;;;;;;33.70;14.83;;;;;;;2.25;85.45;98164.91;1674203;85;25614;-62
2021/12/30 00:23:02;;;;;;;20.35;9.63;;;;;;;2.29;85.50;98171.91;1673879;85;25772;-63
2021/12/30 00:25:28;;;;;;;30.62;14.00;;;;;;;2.33;85.53;98179.22;1673690;85;25420;-62
2021/12/30 00:27:54;;;;;;;30.17;14.25;;;;;;;2.38;85.43;98169.77;1674323;85;27231;-63
2021/12/30 00:30:21;;;;;;;11.10;5.67;;;;;;;2.38;85.47;98167.05;1673807;85;25672;-63
2021/12/30 00:32:47;;;;;;;21.85;10.23;;;;;;;2.37;85.75;98167.33;1674061;85;25602;-63
2021/12/30 00:35:13;;;;;;;20.77;10.45;;;;;;;2.31;85.93;98159.77;1673863;85;25781;-63
2021/12/30 00:37:40;;;;;;;22.00;10.35;;;;;;;2.29;86.10;98158.39;1673865;85;25661;-63
2021/12/30 00:40:08;;;;;;;26.15;12.28;;;;;;;2.24;86.33;98167.32;1673999;85;27627;-62
2021/12/30 00:42:34;;;;;;;17.30;8.68;;;;;;;2.23;86.05;98171.94;1674196;85;25423;-62
2021/12/30 00:45:01;;;;;;;23.12;10.50;;;;;;;2.18;86.43;98160.29;1673991;85;25768;-62
2021/12/30 00:47:27;;;;;;;18.00;8.70;;;;;;;2.16;86.52;98171.37;1674534;85;25877;-62
2021/12/30 00:49:53;;;;;;;12.73;6.97;;;;;;;2.17;86.54;98166.78;1674353;85;25597;-62
2021/12/30 00:52:19;;;;;;;22.50;11.43;;;;;;;2.16;86.62;98170.02;1674269;85;27326;-62
2021/12/30 00:54:46;;;;;;;23.62;11.43;;;;;;;2.16;86.74;98163.27;1674091;85;25593;-62
2021/12/30 00:57:12;;;;;;;22.50;9.75;;;;;;;2.21;86.56;98170.56;1673878;85;25486;-62
2021/12/30 00:59:39;;;;;;;21.55;11.18;;;;;;;2.22;86.67;98186.52;1674184;85;25879;-64
2021/12/30 01:02:05;;;;;;;22.93;10.38;;;;;;;2.24;86.57;98190.30;1674197;85;25708;-62
2021/12/30 01:04:32;;;;;;;13.35;5.22;;;;;;;2.23;86.35;98187.34;1672165;84;27247;-62
2021/12/30 01:06:58;;;;;;;20.10;10.45;;;;;;;2.21;86.53;98194.89;1670554;85;25664;-61
2021/12/30 01:09:24;;;;;;;18.00;8.65;;;;;;;2.21;86.42;98195.72;1670219;85;25676;-61
2021/12/30 01:11:50;;;;;;;14.28;6.00;;;;;;;2.23;86.32;98192.74;1670431;85;25709;-62
2021/12/30 01:14:21;;;;;;;13.45;7.62;;;;;;;2.25;86.23;98186.53;1670111;85;25648;-62
2021/12/30 01:16:50;;;;;;;14.00;7.37;;;;;;;2.27;86.17;98180.86;1669945;85;26135;-62
2021/12/30 01:21:51;;;;;;;26.87;11.93;;;;;;;2.33;85.98;98190.03;1670348;85;25719;-62
2021/12/30 01:24:17;;;;;;;26.05;10.58;;;;;;;2.37;85.82;98202.48;1670455;85;25640;-62
2021/12/30 01:26:43;;;;;;;41.83;15.78;;;;;;;2.39;85.67;98196.27;1670249;85;25471;-61
2021/12/30 01:29:09;;;;;;;29.05;11.70;;;;;;;2.38;85.58;98202.21;1670247;85;27508;-61
2021/12/30 01:31:36;;;;;;;50.98;16.85;;;;;;;2.34;85.54;98207.08;1670100;85;25629;-62
2021/12/30 01:34:02;;;;;;;50.63;18.10;;;;;;;2.31;85.46;98210.33;1670509;85;25675;-61
2021/12/30 01:36:28;;;;;;;50.03;17.12;;;;;;;2.31;85.52;98220.61;1670191;85;25726;-61
2021/12/30 01:38:55;;;;;;;23.10;11.83;;;;;;;2.30;85.48;98216.83;1670250;85;25605;-62
2021/12/30 01:41:23;;;;;;;18.52;10.03;;;;;;;2.31;85.39;98211.67;1670275;85;29530;-61
2021/12/30 01:43:51;;;;;;;25.15;12.23;;;;;;;2.30;85.44;98212.77;1670249;85;25636;-62
2021/12/30 01:46:17;;;;;;;20.82;10.45;;;;;;;2.29;85.44;98203.02;1670336;85;25467;-61
2021/12/30 01:48:44;;;;;;;13.98;7.80;;;;;;;2.30;85.51;98206.80;1670295;85;26307;-61
2021/12/30 01:51:11;;;;;;;18.45;8.53;;;;;;;2.31;85.53;98198.98;1670221;85;25416;-63
2021/12/30 01:53:38;;;;;;;14.13;7.55;;;;;;;2.33;85.54;98191.95;1670559;85;28397;-62
2021/12/30 01:56:06;;;;;;;13.68;7.00;;;;;;;2.34;85.64;98190.33;1670150;85;25620;-62
2021/12/30 01:58:36;;;;;;;9.88;4.30;;;;;;;2.36;85.73;98190.84;1670582;85;25767;-62
2021/12/30 02:01:02;;;;;;;11.88;6.28;;;;;;;2.35;85.86;98189.77;1670092;85;25661;-62
2021/12/30 02:03:28;;;;;;;14.25;6.97;;;;;;;2.33;85.87;98192.73;1670318;85;25480;-61
2021/12/30 02:05:55;;;;;;;24.80;10.68;;;;;;;2.31;85.84;98185.98;1673654;85;27437;-62
2021/12/30 02:08:21;;;;;;;27.07;12.18;;;;;;;2.32;85.69;98189.77;1673740;85;25590;-63
2021/12/30 02:10:50;;;;;;;19.23;9.08;;;;;;;2.35;85.62;98191.11;1674056;85;25472;-63
2021/12/30 02:13:19;;;;;;;19.85;9.98;;;;;;;2.36;85.66;98184.64;1673926;85;25743;-62
2021/12/30 02:15:47;;;;;;;16.52;8.78;;;;;;;2.40;85.57;98189.77;1674040;85;25700;-62
2021/12/30 02:18:13;;;;;;;17.45;9.00;;;;;;;2.45;85.55;98193.81;1674097;85;27598;-61
2021/12/30 02:20:56;;;;;;;18.65;9.35;;;;;;;2.46;85.73;98192.75;1673887;85;25669;-62
2021/12/30 02:23:32;;;;;;;10.60;4.67;;;;;;;2.48;85.74;98186.50;1674211;85;25494;-62
2021/12/30 02:26:17;;;;;;;16.82;8.58;;;;;;;2.46;86.07;98175.16;1674159;85;26632;-62
2021/12/30 02:28:42;;;;;;;7.60;4.42;;;;;;;2.47;85.99;98184.07;1673055;85;25440;-61
2021/12/30 02:31:16;;;;;;;20.40;9.58;;;;;;;2.43;86.36;98185.70;1674130;85;28413;-62
2021/12/30 02:33:45;;;;;;;17.67;8.88;;;;;;;2.43;86.16;98176.24;1672530;85;25734;-63
2021/12/30 02:36:14;;;;;;;25.55;11.93;;;;;;;2.43;86.31;98184.35;1674173;85;25631;-63
2021/12/30 02:38:44;;;;;;;17.77;8.45;;;;;;;2.46;86.13;98195.98;1674081;85;25899;-62
2021/12/30 02:41:13;;;;;;;26.40;10.82;;;;;;;2.46;86.22;98200.86;1673514;85;25483;-61
2021/12/30 02:43:37;;;;;;;20.70;10.20;;;;;;;2.48;86.25;98205.44;1673415;85;25912;-62
2021/12/30 02:46:04;;;;;;;22.52;10.63;;;;;;;2.54;86.17;98211.68;1673728;85;25649;-61
2021/12/30 02:48:33;;;;;;;20.55;10.32;;;;;;;2.59;86.14;98212.22;1674136;85;25403;-62
2021/12/30 02:51:04;;;;;;;24.52;10.78;;;;;;;2.62;86.11;98207.05;1673784;85;25742;-62
2021/12/30 02:53:31;;;;;;;;;;;;;;;2.67;85.98;98202.74;1675747;85;25764;-61
2021/12/30 02:55:57;;;;;;;24.67;10.63;;;;;;;2.67;86.19;98206.23;1674111;85;27405;-62
2021/12/30 02:58:26;;;;;;;17.27;8.15;;;;;;;2.66;86.13;98210.57;1674044;85;25642;-61
2021/12/30 03:01:10;;;;;;;21.52;11.12;;;;;;;2.63;86.19;98207.88;1674045;85;25811;-63
2021/12/30 03:03:37;;;;;;;21.70;11.08;;;;;;;2.61;86.04;98202.73;1673923;85;25845;-61
2021/12/30 03:06:06;;;;;;;18.65;8.40;;;;;;;2.59;86.15;98213.01;1673801;85;25432;-61
2021/12/30 03:08:34;;;;;;;19.50;10.85;;;;;;;2.59;86.14;98215.72;1674085;85;27472;-61
2021/12/30 03:11:03;;;;;;;9.60;4.92;;;;;;;2.61;86.05;98223.56;1674039;85;25621;-61
2021/12/30 03:13:34;;;;;;;16.17;8.60;;;;;;;2.60;86.08;98222.77;1674078;85;25621;-63
2021/12/30 03:16:07;;;;;;;19.80;9.68;;;;;;;2.62;85.92;98227.34;1673916;85;25719;-62
2021/12/30 03:18:36;;;;;;;25.72;11.10;;;;;;;2.62;85.88;98233.31;1673479;85;25653;-62
2021/12/30 03:21:05;;;;;;;24.18;11.63;;;;;;;2.65;85.89;98246.30;1674201;85;27492;-63
2021/12/30 03:23:32;;;;;;;15.30;7.83;;;;;;;2.66;85.82;98233.56;1673977;85;25692;-63
2021/12/30 03:25:59;;;;;;;15.48;8.13;;;;;;;2.65;85.91;98240.07;1674084;85;25520;-62
2021/12/30 03:28:25;;;;;;;11.28;5.83;;;;;;;2.61;85.93;98233.84;1673871;85;25890;-62
2021/12/30 03:30:52;;;;;;;19.05;10.15;;;;;;;2.59;86.18;98233.86;1674161;85;25499;-61
2021/12/30 03:33:23;;;;;;;15.38;8.53;;;;;;;2.60;86.21;98228.70;1674151;85;28265;-62
2021/12/30 03:35:50;;;;;;;18.70;9.88;;;;;;;2.62;86.21;98224.64;1673958;85;25582;-62
2021/12/30 03:38:16;;;;;;;26.65;12.18;;;;;;;2.63;86.32;98228.98;1674153;85;25662;-62
2021/12/30 03:40:42;;;;;;;14.45;8.15;;;;;;;2.68;86.18;98232.77;1674223;85;25690;-61
2021/12/30 03:43:09;;;;;;;18.10;9.78;;;;;;;2.73;86.21;98240.86;1673818;85;25705;-61
2021/12/30 03:45:35;;;;;;;20.68;10.08;;;;;;;2.75;86.27;98239.52;1673798;85;27348;-62
2021/12/30 03:48:02;;;;;;;22.17;10.13;;;;;;;2.80;86.26;98244.66;1673706;85;25614;-61
2021/12/30 03:50:29;;;;;;;22.42;10.40;;;;;;;2.84;86.25;98241.13;1673782;85;25739;-62
2021/12/30 03:53:00;;;;;;;26.42;12.20;;;;;;;2.89;86.22;98248.44;1673926;85;25723;-62
2021/12/30 03:55:29;;;;;;;24.52;11.28;;;;;;;2.92;86.09;98249.24;1674030;85;25627;-61
2021/12/30 03:57:57;;;;;;;29.27;11.73;;;;;;;2.96;86.17;98256.25;1673825;85;27579;-64
2021/12/30 04:00:26;;;;;;;29.42;12.85;;;;;;;2.98;86.15;98260.33;1673971;85;26021;-61
2021/12/30 04:02:53;;;;;;;33.20;13.62;;;;;;;2.99;86.10;98268.71;1674074;85;25762;-62
2021/12/30 04:05:21;;;;;;;31.40;13.62;;;;;;;2.97;86.18;98260.05;1672322;84;26452;-62
2021/12/30 04:07:48;;;;;;;36.20;14.83;;;;;;;2.97;86.30;98263.31;1650313;86;25627;-64
2021/12/30 04:10:17;;;;;;;42.60;17.05;;;;;;;2.97;86.31;98265.45;1650489;87;27651;-62
2021/12/30 04:12:48;;;;;;;49.05;17.80;;;;;;;3.02;86.33;98261.93;1650173;86;25630;-61
2021/12/30 04:15:15;;;;;;;39.58;16.57;;;;;;;3.05;86.28;98262.73;1650446;87;25569;-61
2021/12/30 04:17:43;;;;;;;45.08;18.12;;;;;;;3.11;86.23;98268.98;1650062;87;25744;-62
2021/12/30 04:20:12;;;;;;;42.85;17.55;;;;;;;3.13;86.10;98278.44;1650180;86;25689;-61
2021/12/30 04:22:40;;;;;;;55.73;19.55;;;;;;;3.17;86.08;98279.25;1650314;86;28229;-61
2021/12/30 04:25:09;;;;;;;31.60;14.40;;;;;;;3.20;86.13;98286.26;1650385;87;25701;-62
2021/12/30 04:27:36;;;;;;;27.40;13.65;;;;;;;3.24;86.05;98275.17;1650400;87;25657;-61
2021/12/30 04:30:06;;;;;;;32.00;13.10;;;;;;;3.26;86.04;98284.38;1650033;87;25772;-61
2021/12/30 04:32:32;;;;;;;37.25;15.15;;;;;;;3.25;86.14;98291.67;1650381;86;25631;-61
2021/12/30 04:34:58;;;;;;;25.60;11.90;;;;;;;3.25;86.16;98298.45;1649980;87;29591;-62
2021/12/30 04:37:26;;;;;;;30.25;15.28;;;;;;;3.25;86.25;98297.09;1650465;85;25425;-63
2021/12/30 04:39:53;;;;;;;39.75;15.70;;;;;;;3.25;86.16;98297.09;1650099;86;25446;-63
2021/12/30 04:42:19;;;;;;;29.80;13.32;;;;;;;3.27;86.06;98298.17;1650507;87;25763;-62
2021/12/30 04:44:48;;;;;;;33.90;14.98;;;;;;;3.26;85.94;98293.29;1650469;87;25483;-62
2021/12/30 04:47:14;;;;;;;33.02;14.53;;;;;;;3.29;85.83;98293.84;1650332;87;26939;-61
2021/12/30 04:49:42;;;;;;;25.68;11.90;;;;;;;3.28;85.73;98292.23;1650099;87;25634;-62
2021/12/30 04:52:09;;;;;;;26.90;11.80;;;;;;;3.29;85.65;98297.37;1650539;87;25665;-62
2021/12/30 04:54:35;;;;;;;33.78;14.87;;;;;;;3.29;85.51;98301.96;1649999;86;25736;-62
2021/12/30 04:57:01;;;;;;;44.08;19.70;;;;;;;3.30;85.46;98300.87;1650754;87;25613;-62
2021/12/30 04:59:27;;;;;;;61.02;24.92;;;;;;;3.31;85.24;98307.93;1650086;85;27565;-62
2021/12/30 05:01:53;;;;;;;61.08;24.85;;;;;;;3.32;85.26;98309.55;1649950;87;25439;-62
2021/12/30 05:04:20;;;;;;;51.30;20.77;;;;;;;3.32;85.23;98314.42;1650030;87;25690;-62
2021/12/30 05:06:46;;;;;;;32.58;13.80;;;;;;;3.31;85.26;98313.34;1650051;86;25573;-61
2021/12/30 05:09:12;;;;;;;43.38;17.32;;;;;;;3.27;85.19;98321.20;1650460;87;25741;-61
2021/12/30 05:11:41;;;;;;;59.23;22.22;;;;;;;3.22;85.22;98320.66;1650037;87;29535;-61
2021/12/30 05:14:12;;;;;;;62.88;24.00;;;;;;;3.18;85.31;98337.19;1649957;86;25728;-62
2021/12/30 05:16:39;;;;;;;;;;;;;;;3.19;85.43;98335.31;1652765;86;26170;-62
2021/12/30 05:19:06;;;;;;;44.00;18.15;;;;;;;3.15;85.68;98330.97;1650039;87;25678;-62
2021/12/30 05:21:33;;;;;;;45.05;18.87;;;;;;;3.16;85.58;98332.58;1650094;87;25501;-61
2021/12/30 05:23:59;;;;;;;15.10;7.72;;;;;;;3.18;85.57;98316.06;1649707;87;27509;-62
2021/12/30 05:26:28;;;;;;;42.05;17.27;;;;;;;3.19;85.63;98313.64;1665358;85;25439;-62
2021/12/30 05:28:56;;;;;;;28.55;12.25;;;;;;;3.21;85.45;98327.70;1665362;86;25711;-62
2021/12/30 05:31:23;;;;;;;20.62;8.65;;;;;;;3.18;85.63;98316.88;1664763;85;25681;-61
2021/12/30 05:33:50;;;;;;;49.30;18.05;;;;;;;3.19;85.66;98318.50;1665195;86;25449;-61
2021/12/30 05:36:16;;;;;;;20.02;8.70;;;;;;;3.20;85.61;98311.98;1665320;85;28358;-61
2021/12/30 05:38:42;;;;;;;20.40;10.13;;;;;;;3.18;85.67;98320.95;1664996;85;25754;-61
2021/12/30 05:41:09;;;;;;;24.82;11.88;;;;;;;3.12;85.68;98324.74;1664945;86;25668;-62
2021/12/30 05:43:35;;;;;;;12.37;6.50;;;;;;;3.08;85.60;98319.05;1665436;85;25719;-61
2021/12/30 05:46:01;;;;;;;33.10;13.75;;;;;;;3.00;85.83;98326.38;1664887;85;25421;-61
2021/12/30 05:48:28;;;;;;;33.95;14.63;;;;;;;2.93;85.69;98333.41;1665336;86;27558;-61
2021/12/30 05:50:59;;;;;;;31.82;13.78;;;;;;;2.89;85.86;98332.34;1664759;86;25809;-61
2021/12/30 05:53:23;;;;;;;27.52;12.05;;;;;;;2.87;85.80;98335.84;1664362;86;25707;-61
2021/12/30 05:55:49;;;;;;;26.75;11.85;;;;;;;2.85;86.01;98342.88;1664980;85;25563;-61
2021/12/30 05:58:16;;;;;;;22.73;9.95;;;;;;;2.83;86.21;98352.36;1664811;86;25480;-62
2021/12/30 06:00:44;;;;;;;34.95;16.15;;;;;;;2.82;86.20;98350.19;1664849;86;29577;-62
2021/12/30 06:03:10;;;;;;;39.48;15.75;;;;;;;2.83;86.00;98345.06;1664801;86;25723;-63
2021/12/30 06:05:36;;;;;;;30.62;14.23;;;;;;;2.84;85.97;98352.09;1665102;85;25672;-62
2021/12/30 06:08:02;;;;;;;28.85;14.65;;;;;;;2.85;86.04;98355.06;1664854;86;25823;-62
2021/12/30 06:10:29;;;;;;;28.02;13.00;;;;;;;2.87;86.08;98354.27;1664856;86;25499;-62
2021/12/30 06:12:55;;;;;;;21.02;10.15;;;;;;;2.91;86.01;98349.66;1664903;85;27380;-62
2021/12/30 06:15:21;;;;;;;22.27;11.53;;;;;;;2.90;86.09;98350.19;1664747;86;25490;-62
2021/12/30 06:17:47;;;;;;;26.70;13.22;;;;;;;2.87;86.25;98348.84;1664825;86;25741;-62
2021/12/30 06:20:14;;;;;;;39.18;16.20;;;;;;;2.86;86.33;98358.06;1664790;86;25750;-65
2021/12/30 06:22:46;;;;;;;41.65;18.42;;;;;;;2.84;86.37;98365.62;1665305;86;25601;-62
2021/12/30 06:25:13;;;;;;;29.67;14.93;;;;;;;2.83;86.44;98368.60;1664585;86;27965;-62
2021/12/30 06:27:39;;;;;;;40.52;17.62;;;;;;;2.85;86.49;98378.63;1664636;86;25665;-62
2021/12/30 06:30:08;;;;;;;33.92;15.85;;;;;;;2.86;86.34;98378.89;1665192;86;25673;-59
2021/12/30 06:32:34;;;;;;;39.40;18.80;;;;;;;2.87;86.50;98383.21;1664226;86;26336;-59
2021/12/30 06:35:01;;;;;;;38.53;18.60;;;;;;;2.89;86.41;98387.83;1664728;85;25673;-61
2021/12/30 06:37:30;;;;;;;45.95;20.10;;;;;;;2.92;86.50;98391.88;1665043;86;27436;-59
2021/12/30 06:39:56;;;;;;;33.48;16.35;;;;;;;2.95;86.44;98388.10;1664818;86;25720;-60
2021/12/30 06:42:22;;;;;;;35.95;15.65;;;;;;;2.98;86.50;98394.86;1664883;85;25664;-60
2021/12/30 06:44:48;;;;;;;30.32;13.50;;;;;;;3.03;86.42;98394.88;1665090;86;26557;-59
2021/12/30 06:47:14;;;;;;;34.90;16.62;;;;;;;3.05;86.54;98390.55;1664834;86;25657;-59
2021/12/30 06:49:41;;;;;;;27.75;12.45;;;;;;;3.07;86.47;98389.19;1664989;86;27926;-60
2021/12/30 06:52:11;;;;;;;24.15;12.00;;;;;;;3.07;86.53;98389.72;1665091;86;25713;-60
2021/12/30 06:54:39;;;;;;;34.67;16.67;;;;;;;3.06;86.63;98393.52;1665016;86;26020;-60
2021/12/30 06:57:06;;;;;;;31.60;14.75;;;;;;;3.07;86.53;98387.83;1664793;86;25827;-60
2021/12/30 06:59:35;;;;;;;38.63;17.00;;;;;;;3.03;86.61;98382.69;1665106;86;25662;-60
2021/12/30 07:02:03;;;;;;;39.05;17.37;;;;;;;3.05;86.61;98386.48;1665022;86;27609;-60
2021/12/30 07:04:29;;;;;;;40.88;18.45;;;;;;;3.06;86.64;98390.80;1665052;86;25763;-59
2021/12/30 07:06:56;;;;;;;32.98;16.15;;;;;;;3.08;86.60;98385.37;1664658;85;25763;-59
2021/12/30 07:09:22;;;;;;;36.05;17.15;;;;;;;3.10;86.59;98374.28;1664705;86;25792;-59
2021/12/30 07:11:50;;;;;;;35.17;16.02;;;;;;;3.14;86.56;98368.62;1664778;86;25749;-59
2021/12/30 07:14:18;;;;;;;36.65;16.97;;;;;;;3.16;86.41;98370.49;1664797;86;27529;-58
2021/12/30 07:16:45;;;;;;;32.08;16.15;;;;;;;3.20;86.41;98376.98;1665101;85;25841;-58
2021/12/30 07:19:12;;;;;;;35.58;17.48;;;;;;;3.25;86.37;98385.11;1664829;86;25446;-59
2021/12/30 07:21:39;;;;;;;36.65;17.50;;;;;;;3.30;86.33;98382.94;1664953;85;25888;-62
2021/12/30 07:24:07;;;;;;;26.90;11.22;;;;;;;3.33;86.27;98383.75;1664749;86;25454;-61
2021/12/30 07:26:33;;;;;;;33.92;16.70;;;;;;;3.37;86.22;98388.09;1665187;86;28347;-59
2021/12/30 07:29:00;;;;;;;36.28;16.90;;;;;;;3.39;86.06;98393.50;1664706;86;26004;-60
2021/12/30 07:31:28;;;;;;;45.63;18.77;;;;;;;3.39;86.09;98395.39;1664773;86;26896;-61
2021/12/30 07:33:54;;;;;;;38.53;16.00;;;;;;;3.37;86.02;98405.70;1665101;86;25870;-62
2021/12/30 07:36:20;;;;;;;50.55;21.07;;;;;;;3.38;86.11;98416.80;1664817;86;25688;-60
2021/12/30 07:38:48;;;;;;;69.35;28.27;;;;;;;3.40;86.15;98415.99;1664739;86;27400;-59
2021/12/30 07:41:15;;;;;;;116.57;44.23;;;;;;;3.44;86.01;98416.24;1664747;86;26064;-61
2021/12/30 07:43:41;;;;;;;260.27;126.70;;;;;;;3.48;85.99;98403.77;1665087;86;25786;-60
2021/12/30 07:46:09;;;;;;;127.20;55.58;;;;;;;3.50;85.94;98401.08;1664721;86;25749;-60
2021/12/30 07:48:37;;;;;;;231.90;98.33;;;;;;;3.57;85.85;98419.75;1665249;86;25439;-61
2021/12/30 07:51:03;;;;;;;402.25;100.25;;;;;;;3.63;85.88;98424.64;1664918;86;29520;-60
2021/12/30 07:53:29;;;;;;;148.70;45.40;;;;;;;3.75;85.76;98427.05;1635951;86;27739;-61
2021/12/30 07:55:56;;;;;;;103.07;33.08;;;;;;;3.82;85.61;98422.68;1664972;86;25438;-60
2021/12/30 07:58:22;;;;;;;116.90;33.58;;;;;;;3.89;85.44;98422.66;1664268;86;27806;-60
2021/12/30 08:00:49;;;;;;;126.33;32.75;;;;;;;3.94;85.45;98434.04;1664942;86;26086;-62
2021/12/30 08:03:15;;;;;;;97.72;25.43;;;;;;;3.97;85.44;98432.70;1665056;86;27508;-63
2021/12/30 08:05:41;;;;;;;123.53;31.55;;;;;;;3.95;85.46;98427.55;1664802;86;25700;-62
2021/12/30 08:08:07;;;;;;;89.10;25.17;;;;;;;3.96;85.73;98424.27;1664980;86;25706;-60
2021/12/30 08:10:35;;;;;;;37.65;13.15;;;;;;;3.96;85.98;98425.09;1664908;86;27867;-60
2021/12/30 08:13:01;;;;;;;73.65;21.45;;;;;;;3.98;86.29;98422.11;1665315;86;25711;-61
2021/12/30 08:15:28;;;;;;;136.62;32.38;;;;;;;3.98;86.36;98425.64;1665198;86;27415;-61
2021/12/30 08:17:54;;;;;;;84.17;24.60;;;;;;;4.01;86.48;98416.14;1664890;86;25618;-61
2021/12/30 08:20:22;;;;;;;67.62;20.12;;;;;;;4.04;86.59;98431.03;1665260;86;25625;-61
2021/12/30 08:22:51;;;;;;;59.67;18.85;;;;;;;4.04;86.77;98431.86;1664934;86;25963;-60
2021/12/30 08:25:18;;;;;;;55.92;16.67;;;;;;;4.05;86.96;98439.42;1665276;86;25633;-61
2021/12/30 08:27:45;;;;;;;81.87;21.10;;;;;;;4.03;87.02;98432.92;1664968;86;27548;-61
2021/12/30 08:30:16;;;;;;;82.62;23.60;;;;;;;4.03;87.13;98436.98;1665412;86;26013;-61
2021/12/30 08:32:44;;;;;;;60.17;19.95;;;;;;;4.04;87.21;98440.52;1665239;86;25711;-60
2021/12/30 08:35:13;;;;;;;40.98;13.18;;;;;;;4.08;87.27;98443.77;1664881;86;25709;-61
2021/12/30 08:37:40;;;;;;;40.78;14.35;;;;;;;4.10;87.52;98448.91;1665392;86;25635;-60
2021/12/30 08:40:10;;;;;;;31.85;10.43;;;;;;;4.11;87.69;98443.75;1665269;86;27580;-60
2021/12/30 08:42:37;;;;;;;37.63;14.70;;;;;;;4.14;87.77;98447.27;1665456;86;25612;-62
2021/12/30 08:45:07;;;;;;;32.42;11.12;;;;;;;4.16;87.83;98450.53;1664982;86;25688;-63
2021/12/30 08:47:33;;;;;;;35.45;14.38;;;;;;;4.18;87.95;98447.00;1665254;86;25744;-61
2021/12/30 08:50:01;;;;;;;45.45;15.32;;;;;;;4.18;87.99;98446.18;1636377;86;25513;-61
2021/12/30 08:52:29;;;;;;;35.15;13.93;;;;;;;4.18;88.12;98440.76;1664991;86;29494;-60
2021/12/30 08:55:04;;;;;;;26.25;9.98;;;;;;;4.20;88.25;98454.86;1665260;86;25675;-60
2021/12/30 08:57:26;;;;;;;40.80;16.02;;;;;;;4.23;88.81;98455.67;1663861;86;25632;-60
2021/12/30 08:59:53;;;;;;;46.25;17.80;;;;;;;4.29;88.62;98448.31;1664914;86;27817;-60
2021/12/30 09:02:19;;;;;;;33.33;11.68;;;;;;;4.35;88.57;98453.42;1664863;86;25631;-61
2021/12/30 09:04:46;;;;;;;41.75;15.65;;;;;;;4.41;88.90;98454.78;1664863;86;27454;-62
2021/12/30 09:07:16;;;;;;;56.37;19.57;;;;;;;4.46;88.77;98455.56;1665002;85;25633;-60
2021/12/30 09:09:43;;;;;;;34.00;12.95;;;;;;;4.50;88.85;98455.83;1664941;86;25677;-61
2021/12/30 09:12:10;;;;;;;76.28;25.12;;;;;;;4.50;89.14;98464.78;1665067;86;25936;-60
2021/12/30 09:14:36;;;;;;;55.60;21.35;;;;;;;4.54;88.88;98460.13;1664828;86;25671;-59
2021/12/30 09:17:05;;;;;;;47.67;19.12;;;;;;;4.60;88.87;98469.34;1664895;86;27355;-60
2021/12/30 09:19:31;;;;;;;56.60;20.37;;;;;;;4.67;88.70;98477.19;1665080;86;25775;-63
2021/12/30 09:21:58;;;;;;;45.28;18.17;;;;;;;4.72;88.69;98469.57;1665263;86;25478;-61
2021/12/30 09:24:24;;;;;;;46.63;19.45;;;;;;;4.75;88.65;98468.45;1664862;86;25743;-61
2021/12/30 09:26:51;;;;;;;56.37;19.52;;;;;;;4.79;88.63;98474.14;1664888;86;25445;-61
2021/12/30 09:29:17;;;;;;;42.85;18.07;;;;;;;4.80;88.85;98470.32;1665033;86;27657;-60
2021/12/30 09:31:48;;;;;;;46.80;18.85;;;;;;;4.82;88.94;98472.77;1664668;86;25687;-60
2021/12/30 09:34:15;;;;;;;34.27;12.33;;;;;;;4.87;88.72;98461.31;1665286;86;25815;-60
2021/12/30 09:36:42;;;;;;;33.92;14.47;;;;;;;4.91;88.88;98458.86;1664869;86;25818;-60
2021/12/30 09:39:12;;;;;;;41.18;15.78;;;;;;;4.96;88.65;98449.34;1665007;86;25484;-60
2021/12/30 09:41:43;;;;;;;39.88;16.57;;;;;;;5.01;88.46;98445.21;1665245;86;27851;-60
2021/12/30 09:44:12;;;;;;;40.52;16.73;;;;;;;5.06;88.36;98454.44;1664779;86;25744;-62
2021/12/30 09:46:39;;;;;;;40.80;15.75;;;;;;;5.04;88.20;98447.93;1665238;86;25620;-62
2021/12/30 09:49:09;;;;;;;33.48;11.85;;;;;;;5.03;88.20;98459.87;1665097;86;25756;-61
2021/12/30 09:51:36;;;;;;;29.35;12.20;;;;;;;5.04;88.24;98453.36;1665246;86;25424;-60
2021/12/30 09:54:04;;;;;;;33.33;12.07;;;;;;;5.05;88.23;98457.69;1665319;86;28041;-62
2021/12/30 09:56:31;;;;;;;28.92;12.53;;;;;;;5.10;88.12;98454.13;1665271;86;25719;-61
2021/12/30 09:58:58;;;;;;;26.65;11.95;;;;;;;5.15;87.92;98449.47;1665170;86;25757;-62
2021/12/30 10:01:24;;;;;;;31.23;12.88;;;;;;;5.24;87.77;98448.88;1664836;86;27922;-60
2021/12/30 10:03:56;;;;;;;17.82;9.10;;;;;;;5.33;87.50;98454.51;1665150;86;25641;-61
2021/12/30 10:06:23;;;;;;;27.80;10.50;;;;;;;5.37;87.07;98449.58;1664907;86;29514;-64
2021/12/30 10:09:01;;;;;;;23.12;10.25;;;;;;;5.38;86.86;98453.09;1664727;85;25620;-61
2021/12/30 10:11:28;;;;;;;19.12;8.88;;;;;;;5.37;86.68;98442.78;1664844;86;25605;-61
2021/12/30 10:13:59;;;;;;;15.58;6.80;;;;;;;5.35;86.61;98450.94;1664884;86;25998;-63
2021/12/30 10:16:27;;;;;;;21.60;10.23;;;;;;;5.34;86.45;98452.86;1664657;86;25677;-61
2021/12/30 10:19:02;;;;;;;19.95;9.10;;;;;;;5.39;86.56;98469.11;1664891;86;28204;-61
2021/12/30 10:21:33;;;;;;;19.77;9.00;;;;;;;5.45;86.41;98459.57;1664835;86;25861;-62
2021/12/30 10:24:08;;;;;;;18.32;8.98;;;;;;;5.51;86.33;98463.33;1665379;86;25470;-61
2021/12/30 10:26:57;;;;;;;17.20;8.00;;;;;;;5.53;86.00;98473.92;1664780;86;25744;-61
2021/12/30 10:29:26;;;;;;;25.48;10.78;;;;;;;5.49;86.16;98482.36;1611201;86;25563;-62
2021/12/30 10:31:53;;;;;;;19.95;8.68;;;;;;;5.47;86.15;98480.48;1665065;86;27861;-60
2021/12/30 10:34:20;;;;;;;24.82;11.45;;;;;;;5.46;86.24;98482.38;1664942;86;26023;-61
2021/12/30 10:36:50;;;;;;;24.35;11.48;;;;;;;5.48;86.47;98488.36;1664845;86;25732;-60
2021/12/30 10:39:24;;;;;;;23.60;10.10;;;;;;;5.52;86.23;98483.14;1665029;86;25781;-63
2021/12/30 10:42:11;;;;;;;27.40;11.57;;;;;;;5.52;86.00;98490.77;1664902;86;25440;-61
2021/12/30 10:45:04;;;;;;;28.60;12.43;;;;;;;5.48;85.88;98485.64;1670387;85;26678;-61
2021/12/30 10:47:34;;;;;;;37.05;13.25;;;;;;;5.47;86.06;98492.16;1664652;86;25668;-61
2021/12/30 10:50:09;;;;;;;23.60;11.45;;;;;;;5.47;86.16;98489.44;1665085;86;25680;-60
2021/12/30 10:52:52;;;;;;;15.95;8.23;;;;;;;5.47;86.02;98484.00;1665031;86;25695;-60
2021/12/30 10:55:21;;;;;;;21.57;10.20;;;;;;;5.46;85.64;98478.84;1665203;86;25654;-60
2021/12/30 10:57:47;;;;;;;23.25;11.12;;;;;;;5.46;85.48;98482.92;1665207;86;27317;-60
2021/12/30 11:00:33;;;;;;;27.82;12.70;;;;;;;5.46;85.42;98486.47;1664712;86;25651;-60
2021/12/30 11:03:27;;;;;;;21.62;9.58;;;;;;;5.48;85.56;98492.98;1664846;86;25598;-62
2021/12/30 11:06:17;;;;;;;23.12;11.00;;;;;;;5.52;85.40;98494.84;1665048;86;26460;-63
2021/12/30 11:08:46;;;;;;;31.85;12.95;;;;;;;5.55;85.28;98493.45;1671587;85;25676;-61
2021/12/30 11:11:28;;;;;;;26.70;11.28;;;;;;;5.55;85.32;98502.17;1673164;85;25927;-63
2021/12/30 11:14:07;;;;;;;28.45;11.10;;;;;;;5.53;85.34;98501.09;1673323;85;25732;-60
2021/12/30 11:16:57;;;;;;;27.17;12.80;;;;;;;5.51;85.30;98506.00;1673557;85;25691;-60
2021/12/30 11:19:23;;;;;;;26.75;12.25;;;;;;;5.55;85.50;98508.97;1672923;85;25718;-60
2021/12/30 11:21:51;;;;;;;25.57;12.35;;;;;;;5.57;85.38;98500.79;1673046;85;25411;-60
2021/12/30 11:24:20;;;;;;;27.17;11.48;;;;;;;5.58;85.33;98506.48;1673113;85;27592;-61
2021/12/30 11:26:46;;;;;;;18.15;8.55;;;;;;;5.59;85.18;98500.50;1673022;85;25430;-63
2021/12/30 11:29:13;;;;;;;20.85;9.43;;;;;;;5.57;85.22;98498.61;1686208;85;25660;-61
2021/12/30 11:31:39;;;;;;;17.10;7.37;;;;;;;5.53;85.28;98493.73;1673405;85;27028;-61
2021/12/30 11:34:06;;;;;;;18.67;8.10;;;;;;;5.50;85.47;98492.94;1644683;86;25521;-61